Sunday, April 22, 2018 at 6:30 a.m.

AVIATION AREA FORECAST

SIGNIFICANT FEATURE……… A Trough across Jamaica.

Comment…... The Trough is expected to remain across Jamaica over the next few days.

24-HOUR FORECAST
This Morning… Mainly sunny.
This Afternoon to evening … Scattered showers and isolated thunderstorms.
Tonight into Monday morning… Partly cloudy.

CLOUDS GENERALLY ACROSS THE ISLAND:
This Morning... FEW022
This Afternoon… BKN018 BKN020CB

WINDS AND TEMPERATURES

Flight  20N 80W 20N 75W
Levels WIND/TEMP WIND/TEMP
450 31027KT/-64 29035KT/-63
390 33039KT/-55 25033KT/-56
340 33031KT/-45 27027KT/-46
300 30027KT/-35 28019KT/-36
240 27017KT/-22 29008KT/-22
180 30010KT/-09 32008KT/-09
100 11002KT/08 14006KT/08
50 12008KT/17 10014KT/16

Flight 15N 80W 15N 75W
Levels WIND/TEMP WIND/TEMP
450 27039KT/-66 25056KT/-66
390 29035KT/-53 25066KT/-52
340 31031KT/-41 25062KT/-40
300 30027KT/-33 26042KT/-33
240 33015KT/-19 29014KT/-19
180 31010KT/-05 27008KT/-07
100 10010KT/09 09010KT/09
50 09019KT/17 11023KT/17


AERODROME FORECAST
TAF
MKJP 221115Z 2212/2312 35005KT 9999 FEW022
BECMG 2214/2216 14020KT BECMG
2301/2303 12010KT=
TAF
MKJS 221115Z 2212/2312 VRB03KT 9999 FEW022CB
BECMG 2214/2216 07015KT TEMPO 2217/2222
4000 TSRA BKN018 BKN020CB BECMG 2301/2303
VRB03KT=

cdj